createdAt,value
2019-02-25T00:01:41.626Z,58.70
2019-02-25T00:04:11.083Z,58.40
2019-02-25T00:06:38.925Z,58.60
2019-02-25T00:09:08.559Z,59.10
2019-02-25T00:11:37.136Z,60.00
2019-02-25T00:14:04.945Z,58.80
2019-02-25T00:16:33.348Z,58.90
2019-02-25T00:19:01.213Z,60.00
2019-02-25T00:21:29.014Z,60.10
2019-02-25T00:23:56.799Z,60.00
2019-02-25T00:26:24.609Z,59.50
2019-02-25T00:28:52.486Z,58.80
2019-02-25T00:31:20.275Z,59.40
2019-02-25T00:33:48.060Z,58.80
2019-02-25T00:36:15.894Z,59.60
2019-02-25T00:38:43.654Z,59.80
2019-02-25T00:41:21.500Z,58.90
2019-02-25T00:44:08.739Z,59.90
2019-02-25T00:46:36.865Z,59.20
2019-02-25T00:49:04.686Z,58.80
2019-02-25T00:51:51.991Z,58.10
2019-02-25T00:54:19.809Z,58.50
2019-02-25T00:56:47.665Z,59.00
2019-02-25T00:59:15.452Z,59.10
2019-02-25T01:01:43.380Z,58.60
2019-02-25T01:04:11.162Z,59.20
2019-02-25T01:06:39.012Z,57.60
2019-02-25T01:09:06.976Z,57.40
2019-02-25T01:11:34.758Z,58.20
2019-02-25T01:14:02.864Z,57.80
2019-02-25T01:16:30.676Z,58.00
2019-02-25T01:18:58.501Z,58.20
2019-02-25T01:21:26.296Z,58.80
2019-02-25T01:23:54.071Z,60.00
2019-02-25T01:26:21.860Z,60.20
2019-02-25T01:28:49.685Z,61.10
2019-02-25T01:31:17.444Z,61.70
2019-02-25T01:33:45.569Z,62.20
2019-02-25T01:36:13.357Z,62.20
2019-02-25T01:38:41.197Z,62.50
2019-02-25T01:41:09.038Z,62.70
2019-02-25T01:43:36.887Z,63.60
2019-02-25T01:46:04.700Z,64.00
2019-02-25T01:48:32.519Z,64.00
2019-02-25T01:51:00.715Z,63.30
2019-02-25T01:53:28.485Z,63.20
2019-02-25T01:55:56.322Z,62.30
2019-02-25T01:58:24.095Z,62.30
2019-02-25T02:00:56.964Z,62.20
2019-02-25T02:03:24.907Z,62.10
2019-02-25T02:05:52.782Z,62.50
2019-02-25T02:08:23.001Z,62.10
2019-02-25T02:11:51.738Z,61.20
2019-02-25T02:14:19.649Z,62.10
2019-02-25T02:16:47.377Z,62.10
2019-02-25T02:19:15.181Z,62.10
2019-02-25T02:21:43.055Z,61.20
2019-02-25T02:24:10.894Z,60.80
2019-02-25T02:26:38.712Z,60.80
2019-02-25T02:29:06.457Z,60.90
2019-02-25T02:31:34.350Z,61.60
2019-02-25T02:34:02.164Z,61.80
2019-02-25T02:36:30.042Z,61.80
2019-02-25T02:38:57.827Z,61.80
2019-02-25T02:41:25.625Z,61.50
2019-02-25T02:43:53.407Z,61.80
2019-02-25T02:47:25.593Z,61.40
2019-02-25T02:49:53.471Z,60.20
2019-02-25T02:52:21.277Z,61.20
2019-02-25T02:54:49.065Z,60.70
2019-02-25T02:57:36.342Z,60.70
2019-02-25T03:00:15.973Z,62.20
2019-02-25T03:02:43.914Z,61.80
2019-02-25T03:05:14.658Z,63.50
2019-02-25T03:07:42.435Z,63.60
2019-02-25T03:10:11.758Z,64.10
2019-02-25T03:12:39.634Z,64.10
2019-02-25T03:15:11.528Z,64.30
2019-02-25T03:17:39.372Z,64.50
2019-02-25T03:20:12.590Z,64.00
2019-02-25T03:22:40.422Z,63.70
2019-02-25T03:25:11.167Z,63.80
2019-02-25T03:27:38.976Z,64.90
2019-02-25T03:30:14.590Z,64.30
2019-02-25T03:32:42.389Z,63.10
2019-02-25T03:35:10.180Z,63.20
2019-02-25T03:37:37.931Z,63.10
2019-02-25T03:40:17.849Z,63.60
2019-02-25T03:42:45.634Z,63.20
2019-02-25T03:45:15.351Z,63.10
2019-02-25T03:48:02.581Z,63.70
2019-02-25T03:50:35.376Z,65.20
2019-02-25T03:53:03.291Z,63.70
2019-02-25T03:55:31.139Z,64.70
2019-02-25T03:57:58.931Z,64.90
2019-02-25T04:00:27.047Z,66.20
2019-02-25T04:02:54.889Z,65.60
2019-02-25T04:05:22.701Z,66.00
2019-02-25T04:07:50.638Z,65.70
2019-02-25T04:10:18.735Z,65.60
2019-02-25T04:12:46.504Z,65.20
2019-02-25T04:15:17.713Z,65.50
2019-02-25T04:17:45.468Z,64.80
2019-02-25T04:20:14.219Z,65.70
2019-02-25T04:22:42.036Z,66.70
2019-02-25T04:25:09.948Z,66.70
2019-02-25T04:27:37.790Z,66.80
2019-02-25T04:30:13.361Z,67.70
2019-02-25T04:32:41.184Z,68.10
2019-02-25T04:35:10.215Z,68.10
2019-02-25T04:37:38.034Z,67.30
2019-02-25T04:40:15.841Z,67.00
2019-02-25T04:42:43.653Z,68.90
2019-02-25T04:45:14.287Z,68.60
2019-02-25T04:47:49.370Z,68.70
2019-02-25T04:50:17.174Z,69.60
2019-02-25T04:52:44.968Z,68.30
2019-02-25T04:55:12.892Z,67.90
2019-02-25T04:57:40.681Z,68.70
2019-02-25T05:00:14.597Z,68.30
2019-02-25T05:02:49.544Z,68.40
2019-02-25T05:05:17.399Z,68.60
2019-02-25T05:07:45.176Z,67.90
2019-02-25T05:10:14.380Z,67.50
2019-02-25T05:12:47.384Z,67.00
2019-02-25T05:15:16.412Z,67.40
2019-02-25T05:17:44.197Z,67.00
2019-02-25T05:20:23.490Z,67.50
2019-02-25T05:22:51.231Z,68.40
2019-02-25T05:25:19.041Z,66.90
2019-02-25T05:27:46.838Z,67.50
2019-02-25T05:30:15.364Z,67.80
2019-02-25T05:32:43.287Z,67.90
2019-02-25T05:35:11.256Z,69.00
2019-02-25T05:37:39.037Z,68.90
2019-02-25T05:40:11.897Z,69.00
2019-02-25T05:42:42.816Z,69.20
2019-02-25T05:45:11.511Z,69.20
2019-02-25T05:47:42.414Z,68.50
2019-02-25T05:50:12.452Z,68.70
2019-02-25T05:52:40.249Z,69.90
2019-02-25T05:55:27.517Z,68.70
2019-02-25T05:57:55.327Z,69.10
2019-02-25T06:00:25.348Z,67.70
2019-02-25T06:02:53.124Z,67.30
2019-02-25T06:05:21.785Z,67.10
2019-02-25T06:07:49.609Z,67.20
2019-02-25T06:10:17.724Z,69.50
2019-02-25T06:12:45.622Z,67.80
2019-02-25T06:15:14.859Z,67.40
2019-02-25T06:17:42.711Z,68.10
2019-02-25T06:20:11.598Z,68.20
2019-02-25T06:22:39.356Z,69.30
2019-02-25T06:25:07.436Z,68.30
2019-02-25T06:27:35.245Z,68.20
2019-02-25T06:30:08.084Z,67.30
2019-02-25T06:32:35.894Z,66.90
2019-02-25T06:35:05.067Z,66.70
2019-02-25T06:37:32.839Z,66.70
2019-02-25T06:40:00.695Z,66.70
2019-02-25T06:42:28.489Z,66.70
2019-02-25T06:44:56.351Z,66.80
2019-02-25T06:47:24.155Z,66.40
2019-02-25T06:49:52.013Z,65.70
2019-02-25T06:52:20.125Z,64.60
2019-02-25T06:54:48.051Z,63.90
2019-02-25T06:57:15.869Z,64.80
2019-02-25T06:59:43.695Z,66.20
2019-02-25T07:02:11.526Z,65.50
2019-02-25T07:05:04.914Z,66.10
2019-02-25T07:07:49.808Z,66.00
2019-02-25T07:10:45.903Z,67.00
2019-02-25T07:13:36.124Z,66.40
2019-02-25T07:16:23.550Z,65.60
2019-02-25T07:19:03.686Z,66.00
2019-02-25T07:21:57.016Z,66.80
2019-02-25T07:24:52.839Z,65.50
2019-02-25T07:27:38.457Z,64.50
2019-02-25T07:30:17.639Z,64.90
2019-02-25T07:32:55.901Z,64.60
2019-02-25T07:35:42.031Z,62.80
2019-02-25T07:38:39.778Z,55.70
2019-02-25T07:41:35.458Z,47.60
2019-02-25T07:44:22.844Z,42.10
2019-02-25T07:47:19.550Z,36.30
2019-02-25T07:50:15.748Z,34.30
2019-02-25T07:52:49.390Z,29.80
2019-02-25T07:55:39.823Z,29.20
2019-02-25T07:58:22.192Z,27.00
2019-02-25T08:01:00.892Z,24.90
2019-02-25T08:03:34.010Z,24.50
2019-02-25T08:06:20.228Z,22.30
2019-02-25T08:09:05.785Z,22.60
2019-02-25T08:12:02.454Z,22.50
2019-02-25T08:14:49.848Z,21.30
2019-02-25T08:17:27.223Z,21.00
2019-02-25T08:20:09.643Z,19.10
2019-02-25T08:23:06.220Z,18.70
2019-02-25T08:25:52.158Z,18.10
2019-02-25T08:28:45.645Z,17.90
2019-02-25T08:31:36.377Z,16.10
2019-02-25T08:34:22.369Z,16.30
2019-02-25T08:37:59.277Z,15.30
2019-02-25T08:41:18.314Z,16.30
2019-02-25T08:43:58.840Z,15.10
2019-02-25T08:46:34.490Z,16.00
2019-02-25T08:49:06.547Z,18.00
2019-02-25T08:51:34.408Z,19.60
2019-02-25T08:54:02.234Z,21.30
2019-02-25T08:56:30.133Z,22.60
2019-02-25T08:58:57.959Z,25.00
2019-02-25T09:01:39.737Z,27.10
2019-02-25T09:04:07.582Z,28.20
2019-02-25T09:06:35.347Z,28.30
2019-02-25T09:09:04.986Z,29.20
2019-02-25T09:11:48.152Z,30.30
2019-02-25T09:14:15.965Z,30.70
2019-02-25T09:16:43.774Z,31.90
2019-02-25T09:19:11.568Z,32.20
2019-02-25T09:21:39.396Z,32.50
2019-02-25T09:24:07.202Z,34.00
2019-02-25T09:26:35.017Z,34.50
2019-02-25T09:29:03.653Z,36.20
2019-02-25T09:31:31.451Z,36.00
2019-02-25T09:33:59.278Z,36.30
2019-02-25T09:36:27.046Z,36.50
2019-02-25T09:38:56.664Z,36.20
2019-02-25T09:41:29.858Z,36.90
2019-02-25T09:43:54.355Z,38.20
2019-02-25T09:46:23.097Z,37.60
2019-02-25T09:48:50.951Z,37.50
2019-02-25T09:51:18.872Z,37.40
2019-02-25T09:53:46.643Z,38.00
2019-02-25T09:56:15.318Z,38.20
2019-02-25T09:58:43.180Z,37.70
2019-02-25T10:01:25.101Z,37.50
2019-02-25T10:03:52.912Z,36.90
2019-02-25T10:06:20.770Z,37.00
2019-02-25T10:08:48.568Z,37.00
2019-02-25T10:11:16.422Z,37.20
2019-02-25T10:13:44.214Z,37.20
2019-02-25T10:16:12.087Z,37.40
2019-02-25T10:18:39.848Z,37.10
2019-02-25T10:21:07.684Z,36.20
2019-02-25T10:23:35.445Z,35.10
2019-02-25T10:26:03.259Z,34.90
2019-02-25T10:28:31.036Z,35.10
2019-02-25T10:30:58.882Z,35.70
2019-02-25T10:33:26.702Z,35.10
2019-02-25T10:35:54.533Z,34.60
2019-02-25T10:38:22.321Z,33.00
2019-02-25T10:40:55.699Z,32.40
2019-02-25T10:43:23.539Z,32.00
2019-02-25T10:45:51.313Z,32.50
2019-02-25T10:48:19.856Z,31.80
2019-02-25T10:50:59.267Z,31.90
2019-02-25T10:53:27.114Z,30.40
2019-02-25T10:56:33.213Z,31.20
2019-02-25T10:59:02.290Z,30.00
2019-02-25T11:01:30.834Z,29.00
2019-02-25T11:03:58.689Z,28.70
2019-02-25T11:06:27.386Z,28.40
2019-02-25T11:09:02.596Z,27.50
2019-02-25T11:11:33.430Z,26.20
2019-02-25T11:14:02.936Z,22.90
2019-02-25T11:16:30.945Z,20.10
2019-02-25T11:19:00.830Z,19.60
2019-02-25T11:21:28.571Z,17.20
2019-02-25T11:23:56.389Z,16.60
2019-02-25T11:26:26.117Z,15.00
2019-02-25T11:28:53.919Z,13.70
2019-02-25T11:31:24.542Z,13.40
2019-02-25T11:33:53.344Z,11.90
2019-02-25T11:36:22.083Z,10.10
2019-02-25T11:38:49.969Z,10.10
2019-02-25T11:41:22.850Z,9.60
2019-02-25T11:43:52.836Z,9.70
2019-02-25T11:46:20.354Z,8.20
2019-02-25T11:48:48.155Z,7.40
2019-02-25T11:51:16.199Z,6.70
2019-02-25T11:53:44.024Z,6.50
2019-02-25T11:56:12.271Z,7.00
2019-02-25T11:58:40.041Z,5.70
2019-02-25T12:01:26.816Z,4.40
2019-02-25T12:03:55.428Z,5.00
2019-02-25T12:06:23.244Z,4.60
2019-02-25T12:08:51.062Z,4.60
2019-02-25T12:11:18.890Z,3.80
2019-02-25T12:13:46.751Z,4.40
2019-02-25T12:16:14.588Z,4.00
2019-02-25T12:18:42.398Z,4.20
2019-02-25T12:21:10.239Z,4.70
2019-02-25T12:23:38.065Z,4.00
2019-02-25T12:26:05.852Z,4.20
2019-02-25T12:28:33.715Z,3.90
2019-02-25T12:31:01.460Z,3.90
2019-02-25T12:33:29.315Z,4.50
2019-02-25T12:35:57.092Z,4.20
2019-02-25T12:38:24.903Z,4.60
2019-02-25T12:41:07.972Z,4.40
2019-02-25T12:43:35.765Z,4.40
2019-02-25T12:46:03.557Z,4.40
2019-02-25T12:48:31.734Z,4.40
2019-02-25T12:50:59.564Z,4.00
2019-02-25T12:53:27.384Z,4.50
2019-02-25T12:55:55.232Z,4.90
2019-02-25T12:58:23.060Z,5.40
2019-02-25T13:00:50.909Z,5.60
2019-02-25T13:03:18.748Z,4.90
2019-02-25T13:05:46.542Z,4.80
2019-02-25T13:08:14.336Z,4.80
2019-02-25T13:10:42.170Z,4.80
2019-02-25T13:13:09.977Z,4.70
2019-02-25T13:15:37.847Z,4.90
2019-02-25T13:18:05.639Z,5.10
2019-02-25T13:20:33.541Z,5.00
2019-02-25T13:23:01.368Z,6.10
2019-02-25T13:25:29.272Z,6.30
2019-02-25T13:27:58.746Z,5.70
2019-02-25T13:30:27.044Z,5.80
2019-02-25T13:32:54.902Z,6.40
2019-02-25T13:35:22.627Z,6.50
2019-02-25T13:37:50.742Z,6.00
2019-02-25T13:40:18.675Z,5.90
2019-02-25T13:42:46.516Z,5.70
2019-02-25T13:45:14.434Z,6.50
2019-02-25T13:47:42.330Z,6.40
2019-02-25T13:50:15.583Z,6.30
2019-02-25T13:52:48.218Z,6.40
2019-02-25T13:55:13.669Z,6.40
2019-02-25T13:57:41.558Z,6.30
2019-02-25T14:00:17.203Z,6.40
2019-02-25T14:02:45.627Z,5.50
2019-02-25T14:05:13.528Z,5.30
2019-02-25T14:07:41.385Z,6.10
2019-02-25T14:10:10.049Z,6.30
2019-02-25T14:12:38.047Z,7.00
2019-02-25T14:15:06.759Z,7.20
2019-02-25T14:17:34.791Z,6.30
2019-02-25T14:20:12.005Z,7.00
2019-02-25T14:22:39.832Z,6.00
2019-02-25T14:25:12.417Z,5.90
2019-02-25T14:27:40.431Z,6.50
2019-02-25T14:30:13.137Z,6.80
2019-02-25T14:32:40.974Z,6.20
2019-02-25T14:35:08.798Z,6.70
2019-02-25T14:37:36.584Z,6.50
2019-02-25T14:40:06.045Z,5.80
2019-02-25T14:42:36.341Z,6.40
2019-02-25T14:45:07.237Z,6.30
2019-02-25T14:47:37.014Z,6.20
2019-02-25T14:50:05.724Z,6.10
2019-02-25T14:52:33.595Z,7.10
2019-02-25T14:55:04.121Z,7.20
2019-02-25T14:57:32.859Z,7.60
2019-02-25T15:00:00.820Z,9.00
2019-02-25T15:02:28.652Z,9.20
2019-02-25T15:04:56.459Z,9.50
2019-02-25T15:07:24.282Z,9.40
2019-02-25T15:09:52.117Z,9.20
2019-02-25T15:12:20.725Z,9.10
2019-02-25T15:14:48.875Z,10.20
2019-02-25T15:17:16.598Z,9.90
2019-02-25T15:19:44.450Z,10.60
2019-02-25T15:22:12.290Z,11.30
2019-02-25T15:24:40.088Z,11.20
2019-02-25T15:27:09.298Z,11.40
2019-02-25T15:29:39.636Z,11.30
2019-02-25T15:32:07.441Z,11.30
2019-02-25T15:34:35.231Z,13.30
2019-02-25T15:37:04.686Z,13.40
2019-02-25T15:39:32.753Z,13.50
2019-02-25T15:42:03.731Z,14.50
2019-02-25T15:44:31.617Z,14.50
2019-02-25T15:47:04.233Z,14.60
2019-02-25T15:49:32.259Z,15.60
2019-02-25T15:52:02.885Z,15.40
2019-02-25T15:54:32.749Z,15.20
2019-02-25T15:57:03.453Z,16.10
2019-02-25T15:59:32.236Z,16.80
2019-02-25T16:02:00.293Z,17.70
2019-02-25T16:04:31.600Z,18.70
2019-02-25T16:06:59.583Z,18.40
2019-02-25T16:09:29.359Z,18.50
2019-02-25T16:11:58.972Z,20.10
2019-02-25T16:14:27.724Z,21.60
2019-02-25T16:16:57.307Z,22.10
2019-02-25T16:19:34.887Z,22.30
2019-02-25T16:21:56.797Z,22.80
2019-02-25T16:24:24.627Z,22.50
2019-02-25T16:26:53.829Z,23.60
2019-02-25T16:29:22.147Z,24.30
2019-02-25T16:32:01.941Z,25.50
2019-02-25T16:34:29.994Z,25.50
2019-02-25T16:36:58.241Z,25.60
2019-02-25T16:39:27.536Z,26.00
2019-02-25T16:41:55.363Z,26.50
2019-02-25T16:44:23.122Z,27.30
2019-02-25T16:46:50.987Z,28.50
2019-02-25T16:49:18.851Z,28.00
2019-02-25T16:51:46.696Z,29.10
2019-02-25T16:54:18.938Z,29.50
2019-02-25T16:56:45.221Z,29.30
2019-02-25T16:59:13.993Z,29.30
2019-02-25T17:01:42.764Z,29.80
2019-02-25T17:04:12.228Z,29.70
2019-02-25T17:06:40.330Z,29.80
2019-02-25T17:09:09.809Z,30.80
2019-02-25T17:11:40.123Z,29.50
2019-02-25T17:14:09.153Z,30.90
2019-02-25T17:16:36.889Z,30.10
2019-02-25T17:19:04.744Z,31.70
2019-02-25T17:21:32.691Z,32.50
2019-02-25T17:24:01.341Z,31.70
2019-02-25T17:26:30.214Z,33.00
2019-02-25T17:28:58.020Z,33.60
2019-02-25T17:31:25.920Z,33.10
2019-02-25T17:33:55.667Z,35.20
2019-02-25T17:36:23.410Z,33.90
2019-02-25T17:38:51.971Z,34.60
2019-02-25T17:41:20.031Z,35.90
2019-02-25T17:43:47.926Z,34.70
2019-02-25T17:46:15.750Z,36.80
2019-02-25T17:48:45.912Z,37.30
2019-02-25T17:51:19.156Z,36.40
2019-02-25T17:53:49.915Z,36.80
2019-02-25T17:56:18.502Z,38.50
2019-02-25T17:58:47.651Z,38.40
2019-02-25T18:01:16.952Z,39.20
2019-02-25T18:03:46.084Z,38.20
2019-02-25T18:06:15.110Z,39.00
2019-02-25T18:08:42.904Z,38.00
2019-02-25T18:11:11.011Z,40.70
2019-02-25T18:13:38.794Z,40.80
2019-02-25T18:16:08.561Z,40.10
2019-02-25T18:18:39.210Z,40.30
2019-02-25T18:21:08.220Z,41.80
2019-02-25T18:23:36.330Z,41.80
2019-02-25T18:26:05.211Z,41.50
2019-02-25T18:28:34.894Z,42.80
2019-02-25T18:31:10.825Z,43.00
2019-02-25T18:33:38.086Z,43.80
2019-02-25T18:36:07.148Z,44.20
2019-02-25T18:38:35.990Z,44.40
2019-02-25T18:41:04.751Z,44.80
2019-02-25T18:43:34.064Z,46.60
2019-02-25T18:46:03.350Z,46.30
2019-02-25T18:48:32.098Z,46.10
2019-02-25T18:51:01.287Z,45.10
2019-02-25T18:53:29.730Z,46.10
2019-02-25T18:55:57.529Z,47.40
2019-02-25T18:58:25.334Z,46.70
2019-02-25T19:00:57.055Z,47.30
2019-02-25T19:03:26.571Z,47.30
2019-02-25T19:05:55.382Z,47.30
2019-02-25T19:08:26.331Z,47.20
2019-02-25T19:10:54.957Z,47.20
2019-02-25T19:13:25.382Z,47.20
2019-02-25T19:15:54.877Z,47.80
2019-02-25T19:18:24.064Z,48.10
2019-02-25T19:20:52.549Z,48.70
2019-02-25T19:23:20.546Z,48.50
2019-02-25T19:25:48.357Z,49.00
2019-02-25T19:28:18.702Z,49.90
2019-02-25T19:30:46.168Z,49.40
2019-02-25T19:33:19.355Z,50.00
2019-02-25T19:35:44.306Z,50.90
2019-02-25T19:38:14.678Z,50.80
2019-02-25T19:40:43.213Z,50.20
2019-02-25T19:43:12.113Z,51.20
2019-02-25T19:45:40.813Z,51.40
2019-02-25T19:48:10.299Z,50.70
2019-02-25T19:50:49.830Z,51.70
2019-02-25T19:53:11.824Z,51.60
2019-02-25T19:55:38.672Z,52.20
2019-02-25T19:58:07.486Z,53.30
2019-02-25T20:00:35.911Z,52.30
2019-02-25T20:03:06.087Z,52.20
2019-02-25T20:05:33.767Z,52.20
2019-02-25T20:08:01.627Z,52.10
2019-02-25T20:10:30.700Z,52.40
2019-02-25T20:12:58.731Z,51.80
2019-02-25T20:15:26.591Z,52.70
2019-02-25T20:17:55.238Z,53.20
2019-02-25T20:20:26.056Z,53.20
2019-02-25T20:22:53.934Z,56.10
2019-02-25T20:25:24.505Z,56.20
2019-02-25T20:27:52.858Z,56.40
2019-02-25T20:30:23.500Z,56.20
2019-02-25T20:32:53.012Z,56.20
2019-02-25T20:35:22.202Z,56.10
2019-02-25T20:37:52.986Z,56.10
2019-02-25T20:40:25.516Z,55.70
2019-02-25T20:42:53.476Z,55.80
2019-02-25T20:45:23.669Z,55.70
2019-02-25T20:47:52.249Z,55.70
2019-02-25T20:50:26.940Z,55.70
2019-02-25T20:52:56.015Z,56.30
2019-02-25T20:55:24.996Z,56.80
2019-02-25T20:57:54.206Z,57.30
2019-02-25T21:00:42.000Z,56.70
2019-02-25T21:03:14.362Z,56.30
2019-02-25T21:05:41.792Z,55.60
2019-02-25T21:08:09.605Z,56.10
2019-02-25T21:10:37.506Z,57.60
2019-02-25T21:13:05.376Z,58.00
2019-02-25T21:15:35.457Z,56.80
2019-02-25T21:18:06.906Z,56.50
2019-02-25T21:20:37.151Z,57.20
2019-02-25T21:23:06.013Z,58.40
2019-02-25T21:25:44.178Z,59.70
2019-02-25T21:28:12.560Z,59.00
2019-02-25T21:31:07.141Z,59.90
2019-02-25T21:33:34.728Z,59.90
2019-02-25T21:36:02.657Z,59.10
2019-02-25T21:38:30.466Z,59.40
2019-02-25T21:41:00.975Z,59.80
2019-02-25T21:43:29.164Z,60.10
2019-02-25T21:45:59.341Z,60.10
2019-02-25T21:48:27.937Z,60.40
2019-02-25T21:51:04.564Z,60.00
2019-02-25T21:53:31.916Z,60.70
2019-02-25T21:56:02.946Z,61.20
2019-02-25T21:58:29.466Z,60.70
2019-02-25T22:00:57.346Z,61.30
2019-02-25T22:03:25.175Z,61.50
2019-02-25T22:05:55.407Z,61.10
2019-02-25T22:08:24.366Z,61.60
2019-02-25T22:11:01.257Z,62.30
2019-02-25T22:13:27.746Z,62.40
2019-02-25T22:15:57.403Z,62.00
2019-02-25T22:18:26.151Z,63.00
2019-02-25T22:21:00.078Z,62.80
2019-02-25T22:23:28.345Z,63.20
2019-02-25T22:25:57.638Z,63.80
2019-02-25T22:28:44.916Z,63.50
2019-02-25T22:31:22.257Z,63.60
2019-02-25T22:33:50.082Z,63.40
2019-02-25T22:36:17.868Z,63.90
2019-02-25T22:38:45.700Z,64.10
2019-02-25T22:41:20.467Z,63.40
2019-02-25T22:43:48.353Z,63.60
2019-02-25T22:46:16.101Z,65.20
2019-02-25T22:48:45.495Z,64.00
2019-02-25T22:51:13.601Z,63.80
2019-02-25T22:53:41.388Z,64.80
2019-02-25T22:56:13.250Z,64.90
2019-02-25T22:58:40.666Z,64.80
2019-02-25T23:01:17.602Z,64.80
2019-02-25T23:03:44.960Z,64.30
2019-02-25T23:06:13.469Z,65.00
2019-02-25T23:08:44.063Z,64.70
2019-02-25T23:11:14.157Z,65.20
2019-02-25T23:13:42.785Z,64.70
2019-02-25T23:16:10.933Z,65.00
2019-02-25T23:18:38.753Z,64.70
2019-02-25T23:21:06.544Z,64.60
2019-02-25T23:23:35.592Z,64.60
2019-02-25T23:26:04.037Z,64.50
2019-02-25T23:28:31.823Z,64.50
2019-02-25T23:30:59.624Z,64.40
2019-02-25T23:33:27.383Z,65.10
2019-02-25T23:35:56.048Z,64.80
2019-02-25T23:38:23.986Z,65.20
2019-02-25T23:40:51.761Z,64.40
2019-02-25T23:43:19.598Z,65.60
2019-02-25T23:45:47.438Z,66.00
2019-02-25T23:48:15.277Z,66.20
2019-02-25T23:50:43.068Z,67.50
2019-02-25T23:53:10.899Z,67.80
2019-02-25T23:55:38.707Z,67.40
2019-02-25T23:58:10.244Z,67.50
